Time;durP1;ratioP1;P1;durP2;ratioP2;P2;SDS_P1;SDS_P2;PMS_P1;PMS_P2;Temp;Humidity;BMP_temperature;BMP_pressure;BME280_temperature;BME280_humidity;BME280_pressure;Samples;Min_cycle;Max_cycle;Signal;HPM_P1;HPM_P2
2023/01/07 00:00:28;;;;;;;;;;;;;;;10.14;100.00;101493.34;5014992;28;20048;-80
2023/01/07 00:02:53;;;;;;;;;;;;;;;10.13;100.00;101489.00;5014389;28;19931;-80
2023/01/07 00:05:19;;;;;;;;;;;;;;;10.12;100.00;101487.31;5014926;28;19921;-80
2023/01/07 00:07:44;;;;;;;;;;;;;;;10.12;100.00;101487.31;5018991;28;19932;-80
2023/01/07 00:10:09;;;;;;;;;;;;;;;10.12;100.00;101487.31;5017716;28;19980;-80
2023/01/07 00:12:34;;;;;;;;;;;;;;;10.10;100.00;101484.72;5015519;28;19918;-80
2023/01/07 00:15:00;;;;;;;;;;;;;;;10.11;100.00;101493.41;5016535;28;19932;-81
2023/01/07 00:17:25;;;;;;;;;;;;;;;10.10;100.00;101489.97;5022767;28;19924;-80
2023/01/07 00:19:50;;;;;;;;;;;;;;;10.09;100.00;101488.22;5026414;28;20259;-80
2023/01/07 00:22:15;;;;;;;;;;;;;;;10.09;100.00;101484.75;5029252;28;19925;-80
2023/01/07 00:24:41;;;;;;;;;;;;;;;10.08;100.00;101483.91;5024461;28;19961;-80
2023/01/07 00:27:06;;;;;;;;;;;;;;;10.09;100.00;101484.75;5030040;28;20215;-80
2023/01/07 00:29:31;;;;;;;;;;;;;;;10.10;100.00;101483.88;5024507;28;20133;-80
2023/01/07 00:31:57;;;;;;;;;;;;;;;10.08;100.00;101480.44;5020878;28;19956;-80
2023/01/07 00:34:22;;;;;;;;;;;;;;;10.09;100.00;101479.53;5031589;28;19925;-80
2023/01/07 00:36:47;;;;;;;;;;;;;;;10.08;100.00;101483.91;5039352;28;19956;-80
2023/01/07 00:39:19;;;;;;;;;;;;;;;10.08;100.00;101480.44;5032828;28;19928;-80
2023/01/07 00:44:30;;;;;;;;;;;;;;;10.08;100.00;101477.81;5039890;28;19927;-80
2023/01/07 00:46:56;;;;;;;;;;;;;;;10.07;100.00;101469.09;5039628;28;19972;-80
2023/01/07 00:49:23;;;;;;;;;;;;;;;10.07;100.00;101465.63;5033429;28;20147;-80
2023/01/07 00:51:48;;;;;;;;;;;;;;;10.06;100.00;101458.66;5003218;28;20258;-80
2023/01/07 00:54:14;;;;;;;;;;;;;;;10.06;100.00;101454.31;5025571;28;19916;-81
2023/01/07 00:56:39;;;;;;;;;;;;;;;10.06;100.00;101461.28;5040552;28;19917;-80
2023/01/07 00:59:04;;;;;;;;;;;;;;;10.05;100.00;101460.44;5037758;28;20236;-80
2023/01/07 01:01:29;;;;;;;;;;;;;;;10.05;100.00;101444.72;5024984;28;19929;-80
2023/01/07 01:03:56;;;;;;;;;;;;;;;10.06;100.00;101446.47;5025556;28;20253;-80
2023/01/07 01:06:21;;;;;;;;;;;;;;;10.05;100.00;101442.13;5028615;28;19956;-81
2023/01/07 01:08:46;;;;;;;;;;;;;;;10.05;100.00;101436.03;5027792;28;19933;-80
2023/01/07 01:11:13;;;;;;;;;;;;;;;10.05;100.00;101433.41;5029294;28;19963;-81
2023/01/07 01:13:38;;;;;;;;;;;;;;;10.05;100.00;101444.72;5028725;28;20263;-81
2023/01/07 01:16:11;;;;;;;;;;;;;;;10.05;100.00;101438.66;5025965;28;20255;-81
2023/01/07 01:18:36;;;;;;;;;;;;;;;10.05;100.00;101428.19;5039405;28;19980;-80
2023/01/07 01:21:03;;;;;;;;;;;;;;;10.06;100.00;101422.03;5026537;28;19925;-80
2023/01/07 01:23:29;;;;;;;;;;;;;;;10.05;100.00;101415.94;5020242;28;20212;-80
2023/01/07 01:26:00;;;;;;;;;;;;;;;10.05;100.00;101425.56;5018624;28;19961;-80
2023/01/07 01:28:25;;;;;;;;;;;;;;;10.05;100.00;101413.31;5020034;28;19914;-80
2023/01/07 01:30:54;;;;;;;;;;;;;;;10.05;100.00;101417.72;5019673;28;19932;-80
2023/01/07 01:33:19;;;;;;;;;;;;;;;10.05;100.00;101420.34;5020043;28;19921;-80
2023/01/07 01:35:45;;;;;;;;;;;;;;;10.04;100.00;101402.91;5025317;28;20303;-80
2023/01/07 01:38:10;;;;;;;;;;;;;;;10.05;100.00;101404.63;5036626;28;20143;-80
2023/01/07 01:40:35;;;;;;;;;;;;;;;10.04;100.00;101405.53;5033331;28;19997;-80
2023/01/07 01:43:00;;;;;;;;;;;;;;;10.05;100.00;101408.09;5018477;28;19920;-81
2023/01/07 01:45:26;;;;;;;;;;;;;;;10.04;100.00;101408.13;5018206;28;20212;-81
2023/01/07 01:47:58;;;;;;;;;;;;;;;10.04;100.00;101388.09;5039089;28;20075;-80
2023/01/07 01:50:26;;;;;;;;;;;;;;;10.04;100.00;101395.06;5040052;28;20444;-80
2023/01/07 01:52:54;;;;;;;;;;;;;;;10.03;100.00;101391.59;5019427;28;20198;-80
2023/01/07 01:55:22;;;;;;;;;;;;;;;10.03;100.00;101401.22;5020159;28;20256;-80
2023/01/07 01:57:50;;;;;;;;;;;;;;;10.02;100.00;101394.25;5035762;28;20223;-80
2023/01/07 02:00:15;;;;;;;;;;;;;;;10.01;100.00;101398.63;5038162;28;19917;-81
2023/01/07 02:02:53;;;;;;;;;;;;;;;10.00;100.00;101396.91;5021765;28;19987;-81
2023/01/07 02:05:19;;;;;;;;;;;;;;;9.99;100.00;101393.44;5019542;28;19987;-80
2023/01/07 02:07:44;;;;;;;;;;;;;;;9.98;100.00;101391.72;5033156;28;19924;-80
2023/01/07 02:10:15;;;;;;;;;;;;;;;9.98;100.00;101390.88;5037859;28;19925;-80
2023/01/07 02:12:49;;;;;;;;;;;;;;;9.98;100.00;101390.88;5025776;28;19992;-80
2023/01/07 02:15:20;;;;;;;;;;;;;;;9.97;100.00;101376.09;5019391;28;19917;-80
2023/01/07 02:18:03;;;;;;;;;;;;;;;9.97;100.00;101383.94;5030673;28;19971;-80
2023/01/07 02:20:31;;;;;;;;;;;;;;;9.96;100.00;101377.81;5039181;28;19924;-80
2023/01/07 02:23:16;;;;;;;;;;;;;;;9.94;100.00;101379.63;5026176;28;19944;-80
2023/01/07 02:25:42;;;;;;;;;;;;;;;9.94;100.00;101377.00;5018709;28;19917;-81
2023/01/07 02:28:22;;;;;;;;;;;;;;;9.94;100.00;101376.16;5023254;28;20151;-80
2023/01/07 02:31:06;;;;;;;;;;;;;;;9.92;100.00;101375.34;5018460;28;20414;-81
2023/01/07 02:33:43;;;;;;;;;;;;;;;9.93;100.00;101375.31;5032345;28;19996;-80
2023/01/07 02:36:17;;;;;;;;;;;;;;;9.91;100.00;101369.25;5038828;28;19909;-81
2023/01/07 02:38:43;;;;;;;;;;;;;;;9.91;100.00;101377.09;5022010;28;20128;-81
2023/01/07 02:41:14;;;;;;;;;;;;;;;9.92;100.00;101370.13;5018448;28;19932;-80
2023/01/07 02:43:51;;;;;;;;;;;;;;;9.92;100.00;101375.34;5031904;28;19959;-81
2023/01/07 02:46:29;;;;;;;;;;;;;;;9.91;100.00;101369.25;5038828;28;20121;-80
2023/01/07 02:48:57;;;;;;;;;;;;;;;9.91;100.00;101364.00;5023403;28;20259;-80
2023/01/07 02:51:30;;;;;;;;;;;;;;;9.91;100.00;101360.53;5019064;28;20187;-80
2023/01/07 02:53:55;;;;;;;;;;;;;;;9.90;100.00;101358.84;5031777;28;19921;-80
2023/01/07 02:56:39;;;;;;;;;;;;;;;9.92;100.00;101354.41;5038312;28;20215;-80
2023/01/07 02:59:17;;;;;;;;;;;;;;;9.89;100.00;101354.50;5025569;28;19921;-80
2023/01/07 03:01:54;;;;;;;;;;;;;;;9.90;100.00;101351.00;5017820;28;19925;-81
2023/01/07 03:04:36;;;;;;;;;;;;;;;9.89;100.00;101357.97;5033296;28;19920;-80
2023/01/07 03:07:20;;;;;;;;;;;;;;;9.89;100.00;101363.19;5037036;28;19923;-80
2023/01/07 03:09:54;;;;;;;;;;;;;;;9.89;100.00;101347.50;5018975;28;19952;-81
2023/01/07 03:12:51;;;;;;;;;;;;;;;9.89;100.00;101342.28;5018463;28;20111;-80
2023/01/07 03:15:19;;;;;;;;;;;;;;;9.89;100.00;101339.66;5005917;28;19921;-81
2023/01/07 03:18:03;;;;;;;;;;;;;;;9.89;100.00;101344.03;5016734;28;20300;-81
2023/01/07 03:20:31;;;;;;;;;;;;;;;9.88;100.00;101348.41;5018178;28;20027;-80
2023/01/07 03:22:57;;;;;;;;;;;;;;;9.87;100.00;101341.47;5017523;28;20029;-80
2023/01/07 03:25:23;;;;;;;;;;;;;;;9.87;100.00;101335.38;5036428;28;19951;-80
2023/01/07 03:27:51;;;;;;;;;;;;;;;9.85;100.00;101342.41;5037394;28;20243;-80
2023/01/07 03:30:18;;;;;;;;;;;;;;;9.83;100.00;101336.38;5021254;28;19918;-80
2023/01/07 03:33:03;;;;;;;;;;;;;;;9.84;100.00;101330.22;5017768;28;20188;-80
2023/01/07 03:35:30;;;;;;;;;;;;;;;9.84;100.00;101325.00;5034816;28;19920;-80
2023/01/07 03:37:57;;;;;;;;;;;;;;;9.83;100.00;101328.53;5035018;28;20234;-80
2023/01/07 03:40:23;;;;;;;;;;;;;;;9.84;100.00;101332.84;5021837;28;19984;-80
2023/01/07 03:42:48;;;;;;;;;;;;;;;9.82;100.00;101329.44;5017379;28;19929;-81
2023/01/07 03:45:18;;;;;;;;;;;;;;;9.81;100.00;101328.56;5030877;28;19909;-81
2023/01/07 03:47:48;;;;;;;;;;;;;;;9.80;100.00;101322.50;5037300;28;19913;-80
2023/01/07 03:50:14;;;;;;;;;;;;;;;9.80;100.00;101325.13;5025724;28;20032;-81
2023/01/07 03:52:39;;;;;;;;;;;;;;;9.80;100.00;101312.03;5016610;28;20222;-80
2023/01/07 03:55:04;;;;;;;;;;;;;;;9.81;100.00;101318.13;5018617;28;19921;-80
2023/01/07 03:57:31;;;;;;;;;;;;;;;9.80;100.00;101313.78;5033429;28;19925;-80
2023/01/07 03:59:56;;;;;;;;;;;;;;;9.80;100.00;101316.38;5030814;28;20220;-80
2023/01/07 04:02:21;;;;;;;;;;;;;;;9.79;100.00;101315.53;5016462;28;19928;-80
2023/01/07 04:04:46;;;;;;;;;;;;;;;9.80;100.00;101313.78;5018516;28;19920;-80
2023/01/07 04:07:12;;;;;;;;;;;;;;;9.79;100.00;101307.69;5037750;28;19913;-80
2023/01/07 04:09:37;;;;;;;;;;;;;;;9.81;100.00;101305.03;5034432;28;19991;-80
2023/01/07 04:12:03;;;;;;;;;;;;;;;9.80;100.00;101300.69;5017572;28;19925;-80
2023/01/07 04:14:28;;;;;;;;;;;;;;;9.80;100.00;101306.81;5017415;28;19913;-80
2023/01/07 04:16:53;;;;;;;;;;;;;;;9.80;100.00;101298.97;5034174;28;19928;-80
2023/01/07 04:19:19;;;;;;;;;;;;;;;9.80;100.00;101295.47;5037244;28;19925;-80
2023/01/07 04:21:44;;;;;;;;;;;;;;;9.79;100.00;101294.63;5021833;28;20112;-81
2023/01/07 04:24:09;;;;;;;;;;;;;;;9.79;100.00;101286.75;5015915;28;19944;-80
2023/01/07 04:26:34;;;;;;;;;;;;;;;9.79;100.00;101289.38;5029409;28;19951;-80
2023/01/07 04:29:00;;;;;;;;;;;;;;;9.79;100.00;101284.16;5036852;28;20136;-80
2023/01/07 04:31:25;;;;;;;;;;;;;;;9.78;100.00;101284.19;5027535;28;19952;-80
2023/01/07 04:33:50;;;;;;;;;;;;;;;9.78;100.00;101276.34;5017041;28;20260;-80
2023/01/07 04:36:15;;;;;;;;;;;;;;;9.78;100.00;101284.19;5024307;28;19932;-80
2023/01/07 04:38:41;;;;;;;;;;;;;;;9.77;100.00;101283.34;5035004;28;19921;-80
2023/01/07 04:41:06;;;;;;;;;;;;;;;9.77;100.00;101278.13;5023400;28;19929;-80
2023/01/07 04:43:31;;;;;;;;;;;;;;;9.75;100.00;101264.22;5037280;28;19928;-81
2023/01/07 04:45:57;;;;;;;;;;;;;;;9.77;100.00;101272.03;5036336;28;21461;-80
2023/01/07 04:48:22;;;;;;;;;;;;;;;9.77;100.00;101267.66;5035535;28;19914;-80
2023/01/07 04:50:47;;;;;;;;;;;;;;;9.77;100.00;101272.03;5036244;28;20229;-80
2023/01/07 04:53:13;;;;;;;;;;;;;;;9.76;100.00;101265.91;5036272;28;19996;-80
2023/01/07 04:55:38;;;;;;;;;;;;;;;9.76;100.00;101255.47;5035998;28;19970;-80
2023/01/07 04:58:04;;;;;;;;;;;;;;;9.76;100.00;101260.69;5019683;28;19926;-80
2023/01/07 05:00:29;;;;;;;;;;;;;;;9.77;100.00;101249.34;5010301;28;19917;-81
2023/01/07 05:02:54;;;;;;;;;;;;;;;9.76;100.00;101247.63;5021353;28;19924;-80
2023/01/07 05:05:20;;;;;;;;;;;;;;;9.75;100.00;101238.06;5020597;28;19920;-80
2023/01/07 05:07:45;;;;;;;;;;;;;;;9.76;100.00;101236.31;5032216;28;19948;-80
2023/01/07 05:10:11;;;;;;;;;;;;;;;9.77;100.00;101230.19;5040120;28;20267;-80
2023/01/07 05:12:36;;;;;;;;;;;;;;;9.75;100.00;101238.06;5029626;28;19918;-80
2023/01/07 05:15:02;;;;;;;;;;;;;;;9.76;100.00;101236.31;5019254;28;19921;-80
2023/01/07 05:17:27;;;;;;;;;;;;;;;9.77;100.00;101236.25;5027654;28;19963;-80
2023/01/07 05:19:53;;;;;;;;;;;;;;;9.75;100.00;101226.72;5039487;28;19921;-80
2023/01/07 05:22:18;;;;;;;;;;;;;;;9.77;100.00;101230.19;5039350;28;19931;-80
2023/01/07 05:24:43;;;;;;;;;;;;;;;9.76;100.00;101220.59;5038294;28;19921;-81
2023/01/07 05:27:08;;;;;;;;;;;;;;;9.77;100.00;101228.41;5038311;28;19921;-80
2023/01/07 05:29:34;;;;;;;;;;;;;;;9.75;100.00;101219.75;5019644;28;19925;-80
2023/01/07 05:31:59;;;;;;;;;;;;;;;9.77;100.00;101217.94;5020477;28;19918;-81
2023/01/07 05:34:24;;;;;;;;;;;;;;;9.77;100.00;101212.72;5039004;28;19917;-81
2023/01/07 05:36:49;;;;;;;;;;;;;;;9.78;100.00;101216.19;5039672;28;19936;-81
2023/01/07 05:39:15;;;;;;;;;;;;;;;9.78;100.00;101213.56;5023561;28;20227;-80
2023/01/07 05:41:40;;;;;;;;;;;;;;;9.77;100.00;101211.88;5019468;28;19945;-80
2023/01/07 05:44:05;;;;;;;;;;;;;;;9.77;100.00;101215.34;5033109;28;20013;-80
2023/01/07 05:46:30;;;;;;;;;;;;;;;9.77;100.00;101202.25;5038581;28;19971;-80
2023/01/07 05:48:56;;;;;;;;;;;;;;;9.77;100.00;101202.25;5028454;28;20151;-80
2023/01/07 05:51:21;;;;;;;;;;;;;;;9.77;100.00;101194.41;5019645;28;19929;-81
2023/01/07 05:53:46;;;;;;;;;;;;;;;9.77;100.00;101191.78;5026620;28;20211;-80
2023/01/07 05:56:12;;;;;;;;;;;;;;;9.76;100.00;101182.22;5039853;28;19936;-80
2023/01/07 05:58:37;;;;;;;;;;;;;;;9.74;100.00;101175.34;5033975;28;20000;-80
2023/01/07 06:01:02;;;;;;;;;;;;;;;9.74;100.00;101178.81;5019615;28;19922;-80
2023/01/07 06:03:27;;;;;;;;;;;;;;;9.73;100.00;101177.09;5021894;28;19935;-80
2023/01/07 06:05:53;;;;;;;;;;;;;;;9.73;100.00;101171.00;5038569;28;19925;-80
2023/01/07 06:08:18;;;;;;;;;;;;;;;9.72;100.00;101172.78;5039197;28;19920;-80
2023/01/07 06:10:43;;;;;;;;;;;;;;;9.72;100.00;101170.16;5001441;28;20256;-80
2023/01/07 06:13:09;;;;;;;;;;;;;;;9.72;100.00;101182.38;5019658;28;20020;-80
2023/01/07 06:15:35;;;;;;;;;;;;;;;9.71;100.00;101170.19;5017940;28;19995;-80
2023/01/07 06:18:01;;;;;;;;;;;;;;;9.70;100.00;101171.97;5019389;28;19928;-80
2023/01/07 06:20:28;;;;;;;;;;;;;;;9.71;100.00;101172.81;5032840;28;19917;-80
2023/01/07 06:22:53;;;;;;;;;;;;;;;9.70;100.00;101161.50;5038559;28;20213;-80
2023/01/07 06:25:19;;;;;;;;;;;;;;;9.69;100.00;101159.78;5026155;28;20145;-80
2023/01/07 06:27:44;;;;;;;;;;;;;;;9.69;100.00;101157.16;5018624;28;19917;-80
2023/01/07 06:30:10;;;;;;;;;;;;;;;9.68;100.00;101145.00;5028590;28;19944;-80
2023/01/07 06:32:40;;;;;;;;;;;;;;;9.67;100.00;101142.44;5037206;28;19928;-80
2023/01/07 06:35:05;;;;;;;;;;;;;;;9.66;100.00;101136.38;5031119;28;19984;-80
2023/01/07 06:37:31;;;;;;;;;;;;;;;9.66;100.00;101138.97;5019192;28;20209;-80
2023/01/07 06:39:57;;;;;;;;;;;;;;;9.64;100.00;101140.78;5023299;28;19929;-80
2023/01/07 06:42:22;;;;;;;;;;;;;;;9.64;100.00;101139.91;5038620;28;20228;-80
2023/01/07 06:44:47;;;;;;;;;;;;;;;9.65;100.00;101149.47;5034720;28;20184;-80
2023/01/07 06:47:12;;;;;;;;;;;;;;;9.62;100.00;101145.19;5018747;28;20266;-80
2023/01/07 06:49:38;;;;;;;;;;;;;;;9.63;100.00;101144.28;5018918;28;19925;-80
2023/01/07 06:52:03;;;;;;;;;;;;;;;9.63;100.00;101143.44;5037669;28;19925;-80
2023/01/07 06:54:28;;;;;;;;;;;;;;;9.61;100.00;101141.72;5037183;28;19981;-80
2023/01/07 06:56:53;;;;;;;;;;;;;;;9.59;100.00;101133.06;5019154;28;19933;-80
2023/01/07 06:59:19;;;;;;;;;;;;;;;9.58;100.00;101127.91;5018537;28;19921;-80
2023/01/07 07:01:44;;;;;;;;;;;;;;;9.58;100.00;101125.28;5032725;28;19952;-80
2023/01/07 07:04:09;;;;;;;;;;;;;;;9.57;100.00;101127.03;5038647;28;19921;-80
2023/01/07 07:06:35;;;;;;;;;;;;;;;9.55;100.00;101126.25;5025139;28;19917;-80
2023/01/07 07:09:00;;;;;;;;;;;;;;;9.56;100.00;101124.47;5018286;28;19947;-79
2023/01/07 07:11:25;;;;;;;;;;;;;;;9.56;100.00;101127.09;5028229;28;20227;-80
2023/01/07 07:13:50;;;;;;;;;;;;;;;9.54;100.00;101118.44;5037428;28;19932;-79
2023/01/07 07:16:16;;;;;;;;;;;;;;;9.54;100.00;101118.44;5030932;28;19925;-79
2023/01/07 07:18:41;;;;;;;;;;;;;;;9.54;100.00;101118.44;5017793;28;19922;-78
2023/01/07 07:21:06;;;;;;;;;;;;;;;9.55;100.00;101120.13;5022053;28;20164;-79
2023/01/07 07:23:32;;;;;;;;;;;;;;;9.55;100.00;101113.16;5035966;28;20209;-79
2023/01/07 07:25:57;;;;;;;;;;;;;;;9.54;100.00;101108.84;5036147;28;19921;-80
2023/01/07 07:28:22;;;;;;;;;;;;;;;9.54;100.00;101114.06;5026503;28;20240;-80
2023/01/07 07:30:47;;;;;;;;;;;;;;;9.54;100.00;101098.38;5026058;28;20224;-80
2023/01/07 07:33:13;;;;;;;;;;;;;;;9.55;100.00;101104.44;5024804;28;19921;-80
2023/01/07 07:35:39;;;;;;;;;;;;;;;9.54;100.00;101102.75;5022644;28;19925;-81
2023/01/07 07:38:04;;;;;;;;;;;;;;;9.54;100.00;101097.53;5017121;28;19920;-80
2023/01/07 07:40:29;;;;;;;;;;;;;;;9.54;100.00;101090.53;5032823;28;19921;-80
2023/01/07 07:42:55;;;;;;;;;;;;;;;9.55;100.00;101099.22;5020385;28;19924;-80
2023/01/07 07:45:20;;;;;;;;;;;;;;;9.55;100.00;101089.63;5030214;28;19917;-80
2023/01/07 07:47:46;;;;;;;;;;;;;;;9.55;100.00;101092.25;5027856;28;19925;-80
2023/01/07 07:50:11;;;;;;;;;;;;;;;9.54;100.00;101085.31;5026479;28;20304;-80
2023/01/07 07:52:36;;;;;;;;;;;;;;;9.55;100.00;101088.75;5023749;28;19913;-80
2023/01/07 07:55:01;;;;;;;;;;;;;;;9.56;100.00;101074.81;5035290;28;19909;-80
2023/01/07 07:57:27;;;;;;;;;;;;;;;9.54;100.00;101074.84;5032828;28;19917;-80
2023/01/07 07:59:53;;;;;;;;;;;;;;;9.54;100.00;101064.38;5027674;28;19944;-80
2023/01/07 08:02:18;;;;;;;;;;;;;;;9.55;100.00;101062.63;5033661;28;19929;-80
2023/01/07 08:04:44;;;;;;;;;;;;;;;9.54;100.00;101064.38;5032631;28;19947;-80
2023/01/07 08:07:10;;;;;;;;;;;;;;;9.55;100.00;101062.63;5034457;28;19921;-80
2023/01/07 08:09:35;;;;;;;;;;;;;;;9.56;100.00;101061.72;5034208;28;20094;-80
2023/01/07 08:12:00;;;;;;;;;;;;;;;9.56;100.00;101066.94;5026946;28;20031;-80
2023/01/07 08:14:26;;;;;;;;;;;;;;;9.57;100.00;101060.84;5030036;28;20209;-80
2023/01/07 08:16:51;;;;;;;;;;;;;;;9.55;100.00;101057.38;5018021;28;19929;-80
2023/01/07 08:19:16;;;;;;;;;;;;;;;9.55;100.00;101060.00;5015169;28;19979;-80
2023/01/07 08:21:41;;;;;;;;;;;;;;;9.54;100.00;101064.38;5014741;28;20268;-80
2023/01/07 08:24:07;;;;;;;;;;;;;;;9.55;100.00;101054.78;5021514;28;19925;-80
2023/01/07 08:26:32;;;;;;;;;;;;;;;9.56;100.00;101059.13;5034853;28;19928;-80
2023/01/07 08:28:57;;;;;;;;;;;;;;;9.54;100.00;101053.09;5033932;28;19983;-80
2023/01/07 08:31:23;;;;;;;;;;;;;;;9.53;100.00;101060.06;5021749;28;19948;-80
2023/01/07 08:33:48;;;;;;;;;;;;;;;9.53;100.00;101062.69;5014426;28;19984;-80
2023/01/07 08:36:13;;;;;;;;;;;;;;;9.54;100.00;101060.94;5026631;28;19931;-80
2023/01/07 08:38:39;;;;;;;;;;;;;;;9.54;100.00;101055.69;5037030;28;19913;-80
2023/01/07 08:41:04;;;;;;;;;;;;;;;9.55;100.00;101062.63;5040776;28;19946;-80
2023/01/07 08:43:29;;;;;;;;;;;;;;;9.54;100.00;101063.53;5041156;28;19921;-80
2023/01/07 08:45:54;;;;;;;;;;;;;;;9.54;100.00;101053.94;5039211;28;20299;-80
2023/01/07 08:48:20;;;;;;;;;;;;;;;9.53;100.00;101057.47;5038763;28;19925;-80
2023/01/07 08:50:50;;;;;;;;;;;;;;;9.54;100.00;101060.94;5037198;28;19960;-80
2023/01/07 08:53:16;;;;;;;;;;;;;;;9.53;100.00;101051.34;5027926;28;19921;-81
2023/01/07 08:55:41;;;;;;;;;;;;;;;9.52;100.00;101047.91;5030316;28;19917;-81
2023/01/07 08:58:07;;;;;;;;;;;;;;;9.53;100.00;101040.91;5034597;28;19929;-80
2023/01/07 09:00:32;;;;;;;;;;;;;;;9.51;100.00;101033.09;5032522;28;19925;-80
2023/01/07 09:02:57;;;;;;;;;;;;;;;9.50;100.00;101036.63;5036876;28;19948;-81
2023/01/07 09:05:23;;;;;;;;;;;;;;;9.50;100.00;101034.03;5042828;28;20177;-80
2023/01/07 09:07:52;;;;;;;;;;;;;;;9.52;100.00;101031.38;5038391;28;19967;-80
2023/01/07 09:10:18;;;;;;;;;;;;;;;9.50;100.00;101030.56;5035745;28;19925;-80
2023/01/07 09:12:43;;;;;;;;;;;;;;;9.49;100.00;101021.00;5030776;28;19932;-80
2023/01/07 09:15:09;;;;;;;;;;;;;;;9.50;100.00;101020.94;5046281;28;20039;-80
2023/01/07 09:17:34;;;;;;;;;;;;;;;9.50;100.00;101022.72;5045933;28;19921;-80
2023/01/07 09:20:02;;;;;;;;;;;;;;;9.50;100.00;101009.66;5037475;28;19913;-80
2023/01/07 09:22:27;;;;;;;;;;;;;;;9.49;100.00;101000.94;5040544;28;19921;-80
2023/01/07 09:24:53;;;;;;;;;;;;;;;9.51;100.00;101003.50;5038647;28;20144;-80
2023/01/07 09:27:18;;;;;;;;;;;;;;;9.50;100.00;100986.97;5040912;28;19921;-80
2023/01/07 09:29:43;;;;;;;;;;;;;;;9.51;100.00;100982.59;5039892;28;20235;-80
2023/01/07 09:32:09;;;;;;;;;;;;;;;9.52;100.00;100989.53;5032201;28;19925;-80
2023/01/07 09:34:34;;;;;;;;;;;;;;;9.52;100.00;100979.06;5036213;28;19921;-80
2023/01/07 09:36:59;;;;;;;;;;;;;;;9.52;100.00;100986.91;5026560;28;20212;-80
2023/01/07 09:39:25;;;;;;;;;;;;;;;9.52;100.00;100982.53;5034107;28;20419;-80
2023/01/07 09:42:14;;;;;;;;;;;;;;;9.52;100.00;100977.31;5029757;28;20201;-80
2023/01/07 09:44:57;;;;;;;;;;;;;;;9.53;100.00;100967.69;5022474;28;20089;-80
2023/01/07 09:47:25;;;;;;;;;;;;;;;9.52;100.00;100963.38;5028591;28;19949;-80
2023/01/07 09:49:53;;;;;;;;;;;;;;;9.52;100.00;100963.38;5027805;28;19921;-80
2023/01/07 09:52:24;;;;;;;;;;;;;;;9.50;100.00;100960.81;5029184;28;20378;-80
2023/01/07 09:54:52;;;;;;;;;;;;;;;9.51;100.00;100961.66;5025209;28;19963;-80
2023/01/07 09:57:17;;;;;;;;;;;;;;;9.51;100.00;100945.97;5027945;28;20140;-80
2023/01/07 09:59:43;;;;;;;;;;;;;;;9.50;100.00;100957.38;5027200;28;19917;-80
2023/01/07 10:02:47;;;;;;;;;;;;;;;9.51;100.00;100949.44;5024980;28;20236;-80
2023/01/07 10:05:23;;;;;;;;;;;;;;;9.48;99.17;100939.09;4966860;28;19922;-80
2023/01/07 10:07:58;;;;;;;;;;;;;;;9.51;99.37;100927.69;4975574;28;19921;-80
2023/01/07 10:10:53;;;;;;;;;;;;;;;9.51;98.68;100922.44;5002030;28;19919;-80
2023/01/07 10:13:24;;;;;;;;;;;;;;;9.52;98.64;100916.34;5018578;28;19928;-80
2023/01/07 10:15:53;;;;;;;;;;;;;;;9.53;99.11;100923.25;5024413;28;19918;-80
2023/01/07 10:18:21;;;;;;;;;;;;;;;9.54;99.19;100911.91;5027474;28;19927;-80
2023/01/07 10:20:55;;;;;;;;;;;;;;;9.52;96.15;100911.09;5027332;28;19917;-80
2023/01/07 10:23:28;;;;;;;;;;;;;;;9.52;96.27;100898.88;5023551;28;19910;-80
2023/01/07 10:25:55;;;;;;;;;;;;;;;9.52;96.12;100900.66;5034445;28;19924;-80
2023/01/07 10:28:23;;;;;;;;;;;;;;;9.53;97.09;100897.97;5029543;28;19921;-80
2023/01/07 10:30:51;;;;;;;;;;;;;;;9.54;97.50;100894.44;5028512;28;19992;-80
2023/01/07 10:33:18;;;;;;;;;;;;;;;9.55;97.92;100888.31;5029957;28;20105;-80
2023/01/07 10:35:45;;;;;;;;;;;;;;;9.54;97.53;100880.53;5028251;28;19940;-80
2023/01/07 10:38:19;;;;;;;;;;;;;;;9.55;97.06;100874.38;5029597;28;19959;-80
2023/01/07 10:40:45;;;;;;;;;;;;;;;9.55;97.13;100859.56;5027362;28;19931;-80
2023/01/07 10:43:28;;;;;;;;;;;;;;;9.56;96.83;100866.47;5037529;28;19945;-80
2023/01/07 10:46:09;;;;;;;;;;;;;;;9.57;96.51;100856.88;5037819;28;19917;-80
2023/01/07 10:48:43;;;;;;;;;;;;;;;9.57;95.86;100849.06;5037587;28;19909;-80
2023/01/07 10:51:27;;;;;;;;;;;;;;;9.57;96.89;100836.81;5036578;28;20103;-80
2023/01/07 10:54:11;;;;;;;;;;;;;;;9.58;96.54;100821.97;5026433;28;19924;-80
2023/01/07 10:56:45;;;;;;;;;;;;;;;9.60;97.18;100828.00;5026278;28;19923;-80
2023/01/07 10:59:13;;;;;;;;;;;;;;;9.60;97.33;100826.25;5028971;28;20226;-80
2023/01/07 11:01:39;;;;;;;;;;;;;;;9.60;97.05;100801.84;5026776;28;19921;-80
2023/01/07 11:04:13;;;;;;;;;;;;;;;9.61;97.21;100795.72;5026093;28;19921;-80
2023/01/07 11:06:57;;;;;;;;;;;;;;;9.60;97.45;100791.38;5025376;28;20188;-80
2023/01/07 11:09:26;;;;;;;;;;;;;;;9.61;96.67;100793.94;5023408;28;19913;-80
2023/01/07 11:11:52;;;;;;;;;;;;;;;9.61;96.44;100785.25;5024753;28;19932;-80
2023/01/07 11:14:19;;;;;;;;;;;;;;;9.61;96.17;100777.41;5026910;28;19960;-80
2023/01/07 11:16:50;;;;;;;;;;;;;;;9.60;95.87;100775.69;5012241;28;19921;-80
2023/01/07 11:19:15;;;;;;;;;;;;;;;9.60;95.50;100766.13;5025846;28;19918;-80
2023/01/07 11:21:42;;;;;;;;;;;;;;;9.60;94.69;100758.28;5024734;28;19909;-80
2023/01/07 11:24:25;;;;;;;;;;;;;;;9.59;94.93;100767.00;5023983;28;20227;-80
2023/01/07 11:26:51;;;;;;;;;;;;;;;9.60;94.18;100760.00;5017097;28;19921;-80
2023/01/07 11:29:24;;;;;;;;;;;;;;;9.61;94.29;100764.34;5022097;28;20116;-80
2023/01/07 11:31:52;;;;;;;;;;;;;;;9.64;95.33;100751.16;5021478;28;19915;-80
2023/01/07 11:34:19;;;;;;;;;;;;;;;9.63;94.55;100746.84;5023131;28;20214;-80
2023/01/07 11:36:44;;;;;;;;;;;;;;;9.64;93.22;100742.44;5024138;28;19909;-80
2023/01/07 11:39:16;;;;;;;;;;;;;;;9.64;92.75;100732.88;5025928;28;20159;-80
2023/01/07 11:41:50;;;;;;;;;;;;;;;9.66;94.14;100740.63;5025650;28;19926;-80
2023/01/07 11:44:15;;;;;;;;;;;;;;;9.66;93.87;100738.00;5028882;28;20089;-80
2023/01/07 11:46:42;;;;;;;;;;;;;;;9.66;93.88;100738.00;5025277;28;19984;-80
2023/01/07 11:49:18;;;;;;;;;;;;;;;9.66;94.51;100733.66;5028099;28;20109;-80
2023/01/07 11:51:43;;;;;;;;;;;;;;;9.66;93.52;100738.00;5021431;28;19917;-80
2023/01/07 11:54:18;;;;;;;;;;;;;;;9.65;92.72;100733.72;5033620;28;19960;-80
2023/01/07 11:56:43;;;;;;;;;;;;;;;9.64;92.53;100724.16;5023379;28;19917;-80
2023/01/07 11:59:14;;;;;;;;;;;;;;;9.64;92.23;100725.03;5027081;28;19925;-80
2023/01/07 12:01:41;;;;;;;;;;;;;;;9.64;92.33;100716.31;5030659;28;19917;-80
2023/01/07 12:04:24;;;;;;;;;;;;;;;9.63;92.70;100714.63;5029194;28;20274;-80
2023/01/07 12:06:51;;;;;;;;;;;;;;;9.65;92.23;100704.94;5020098;28;19917;-80
2023/01/07 12:09:16;;;;;;;;;;;;;;;9.64;92.71;100704.09;5029696;28;19963;-80
2023/01/07 12:11:43;;;;;;;;;;;;;;;9.65;92.96;100689.25;5035870;28;19920;-80
2023/01/07 12:14:22;;;;;;;;;;;;;;;9.64;92.95;100690.16;5035716;28;20224;-80
2023/01/07 12:16:49;;;;;;;;;;;;;;;9.63;91.74;100673.63;5035045;28;19916;-79
2023/01/07 12:19:23;;;;;;;;;;;;;;;9.64;92.26;100674.47;5029522;28;19928;-79
2023/01/07 12:21:49;;;;;;;;;;;;;;;9.65;93.58;100665.72;5032237;28;19917;-79
2023/01/07 12:24:23;;;;;;;;;;;;;;;9.65;93.37;100666.56;5036413;28;20114;-79
2023/01/07 12:26:55;;;;;;;;;;;;;;;9.64;92.97;100648.31;5036513;28;20105;-79
2023/01/07 12:29:21;;;;;;;;;;;;;;;9.65;93.69;100647.41;5023411;28;19913;-79
2023/01/07 12:31:46;;;;;;;;;;;;;;;9.64;93.54;100638.72;5032276;28;19992;-79
2023/01/07 12:34:23;;;;;;;;;;;;;;;9.65;93.45;100637.81;5030021;28;20108;-79
2023/01/07 12:37:12;;;;;;;;;;;;;;;9.66;94.11;100620.34;5024865;28;19929;-79
2023/01/07 12:39:39;;;;;;;;;;;;;;;9.65;93.29;100616.03;5021359;28;19921;-79
2023/01/07 12:42:05;;;;;;;;;;;;;;;9.66;93.69;100607.25;5029817;28;19920;-79
2023/01/07 12:44:30;;;;;;;;;;;;;;;9.65;93.06;100603.81;5031147;28;19959;-79